Dakar, Senegal

9:10 PM GMT on July 05, 2015 (GMT +0000)
Ngor Almadies | | Change Station
CLOSE
Current Station
Personal Weather Station
Location: Dakar, DAKAR
Elevation: 46 ft
Nearby Weather Stations

Elev 46 ft 14.74 °N, 17.51 °W | Updated 18 seconds ago

Scattered Clouds
Scattered Clouds
80.2 °F
Feels Like 85 °F
N
2.0
Wind Variable Wind from NW
Gusts 3.0 mph

Today
High -- | Low -- °F
--% Chance of Precip.
Yesterday
High -- | Low -- °F
Precip. -- in
6:45 AM 7:43 PM
Waning Gibbous, 82% visible
Pressure 29.86 in
Visibility 6.2 miles
Clouds Scattered Clouds 800 ft
Heat Index 85 °F
Dew Point 74 °F
Humidity 80%
Rainfall 0.00 in
Snow Depth Not available.
UV 0 out of 12
Pollen Not available.
Air Quality Not available.
Flu Activity Not available.
METAR GOOY 052100Z 22004KT 170V300 9999 SCT008 27/22 Q1011 NOSIG

More Conditions Fewer Conditions

Pressure 29.86 in
Visibility 6.2 miles
Clouds Scattered Clouds 800 ft
Heat Index 85 °F
Dew Point 74 °F
Humidity 80%
Rainfall 0.00 in
Snow Depth Not available.
UV 0 out of 12
Pollen Not available.
Air Quality Not available.
Flu Activity Not available.
METAR GOOY 052100Z 22004KT 170V300 9999 SCT008 27/22 Q1011 NOSIG

More Conditions Fewer Conditions

10-Day Weather Forecast

×

Almanac

Astronomy

Jul. 05, 2015 Rise Set
Actual Time
Civil Twilight
Nautical Twilight
Astronomical Twilight
Moon
Length of Visible Light
Length of Day
Tomorrow will be .
, % of the Moon is Illuminated

Today's Extremes

Country Highs Country Lows

Community

WunderPhotos

Upload Photos

1,835,393 photos uploaded!

WunderBlogs® & News

Nearby

Air Quality

  Air Quality AQ Index Pollutant
Not available.

Snow Depth

Station Depth Elevation

Earthquake Activity

City Distance Mag. Time & Date
Minimum magnitude displayed is 2.5.

Coastal Water Temperatures

Place Temperature

Stations

Nearby Weather Stations

Station Location Temp. Windchill Dew Point Humidity Wind Precip. Elev Updated Type